Puskino, Russia
Current Conditions -  °F | °C
As of 12:30 PM on Sunday 26 Oct 2014 (Local Time) from UUDD Reporting Station
Clear Clear  
Wind Chill: 24°   Ceiling: Unl
Heat Index: 34°   Visibility: 6mi
Dew Point: 12°   Wind: 13mph
Humidity: 41%   Direction: 240°WSW
Pressure: 30.53"   Gusts: NA
Location:  55.85°N, 38.44°E
Report Text: UUDD 260930Z 24006MPS CAVOK 01/M11 Q1034 32150095 82150095NOSIG
Loading
Personal Weather Stations






























Interactive Weather Map
Tropical Storm Tracking
New forecast layout! Learn more

10-Day Weather Forecast

Advertisements
Track Severe Weather on mobile